Time;durP1;ratioP1;P1;durP2;ratioP2;P2;SDS_P1;SDS_P2;PMS_P1;PMS_P2;Temp;Humidity;BMP_temperature;BMP_pressure;BME280_temperature;BME280_humidity;BME280_pressure;Samples;Min_cycle;Max_cycle;Signal;HPM_P1;HPM_P2
2021/10/08 00:00:20;;;;;;;11.93;5.82;;;;;;;14.16;84.05;97231.53;5019757;28;20541;-73
2021/10/08 00:02:47;;;;;;;8.80;5.83;;;;;;;14.36;83.96;97235.38;5018637;28;20225;-73
2021/10/08 00:05:14;;;;;;;9.00;5.10;;;;;;;14.22;85.17;97233.47;5018061;28;20622;-73
2021/10/08 00:07:40;;;;;;;9.48;6.03;;;;;;;14.18;85.80;97229.53;5015502;28;20206;-73
2021/10/08 00:10:08;;;;;;;9.60;5.80;;;;;;;14.19;86.45;97228.50;5022847;28;20220;-73
2021/10/08 00:12:34;;;;;;;11.80;5.88;;;;;;;14.05;86.38;97235.38;5018299;28;20206;-73
2021/10/08 00:15:01;;;;;;;12.60;5.63;;;;;;;14.12;86.32;97232.88;5018196;28;20229;-73
2021/10/08 00:17:27;;;;;;;11.10;5.85;;;;;;;14.03;86.10;97228.59;5021127;28;20987;-73
2021/10/08 00:19:55;;;;;;;8.07;5.55;;;;;;;14.15;86.53;97233.34;5022766;28;20206;-73
2021/10/08 00:22:22;;;;;;;9.75;5.88;;;;;;;14.00;86.39;97231.56;5018121;28;20229;-73
2021/10/08 00:24:48;;;;;;;11.65;5.75;;;;;;;13.96;85.59;97227.63;5018471;28;20230;-73
2021/10/08 00:27:15;;;;;;;7.32;5.20;;;;;;;13.98;85.55;97229.09;5017244;28;20208;-73
2021/10/08 00:29:41;;;;;;;9.27;6.20;;;;;;;14.01;85.58;97219.97;5018543;28;20216;-73
2021/10/08 00:32:07;;;;;;;9.85;5.43;;;;;;;14.05;85.60;97218.63;5018449;28;20216;-73
2021/10/08 00:34:34;;;;;;;10.43;5.65;;;;;;;13.94;86.22;97219.03;5018174;28;20746;-73
2021/10/08 00:37:02;;;;;;;12.93;6.00;;;;;;;13.98;85.82;97216.88;5016845;28;20623;-73
2021/10/08 00:39:29;;;;;;;14.07;5.97;;;;;;;13.96;86.14;97211.72;5017848;28;20201;-73
2021/10/08 00:41:55;;;;;;;9.77;6.22;;;;;;;13.73;85.97;97221.44;5017511;28;20214;-73
2021/10/08 00:44:23;;;;;;;7.87;5.53;;;;;;;13.89;86.13;97213.41;5018731;28;20235;-73
2021/10/08 00:46:50;;;;;;;12.32;5.72;;;;;;;13.87;85.43;97219.91;5017170;28;20206;-73
2021/10/08 00:49:16;;;;;;;8.38;5.53;;;;;;;13.89;85.53;97216.06;5017812;28;20202;-73
2021/10/08 00:51:42;;;;;;;11.27;5.83;;;;;;;13.92;85.42;97221.00;5018056;28;20217;-73
2021/10/08 00:54:10;;;;;;;11.98;5.57;;;;;;;14.05;85.56;97218.63;5017060;28;20239;-73
2021/10/08 00:56:37;;;;;;;11.05;5.32;;;;;;;13.86;86.11;97211.13;5020704;28;20205;-73
2021/10/08 00:59:03;;;;;;;9.88;5.70;;;;;;;13.82;86.44;97217.75;5017136;28;21182;-73
2021/10/08 01:01:30;;;;;;;8.38;5.55;;;;;;;13.80;86.42;97217.09;5017824;28;20202;-73
2021/10/08 01:03:56;;;;;;;11.13;5.63;;;;;;;13.87;86.21;97206.66;5017310;28;20900;-73
2021/10/08 01:06:23;;;;;;;9.18;5.13;;;;;;;13.82;86.13;97209.78;5014153;28;20580;-73
2021/10/08 01:08:49;;;;;;;9.43;5.10;;;;;;;13.73;87.17;97210.84;5020946;28;20217;-73
2021/10/08 01:11:19;;;;;;;7.45;5.13;;;;;;;14.01;86.68;97209.38;5017297;28;20209;-73
2021/10/08 01:13:46;;;;;;;9.50;4.93;;;;;;;13.75;86.83;97208.84;5017048;28;20253;-73
2021/10/08 01:16:13;;;;;;;8.48;5.00;;;;;;;13.49;88.39;97210.13;5017116;28;20233;-73
2021/10/08 01:18:39;;;;;;;8.73;4.88;;;;;;;13.72;87.23;97203.91;5018083;28;20206;-73
2021/10/08 01:21:07;;;;;;;8.80;5.30;;;;;;;13.76;88.21;97205.22;5016896;28;20206;-73
2021/10/08 01:23:33;;;;;;;8.50;5.13;;;;;;;13.69;87.70;97209.53;5016849;28;20229;-73
2021/10/08 01:26:00;;;;;;;8.93;4.50;;;;;;;13.66;88.05;97209.06;5017116;28;20213;-73
2021/10/08 01:28:26;;;;;;;8.83;5.40;;;;;;;13.68;87.65;97194.66;5017348;28;20209;-73
2021/10/08 01:30:53;;;;;;;12.23;5.68;;;;;;;13.69;87.77;97196.28;5017203;28;20206;-73
2021/10/08 01:33:19;;;;;;;13.05;5.53;;;;;;;13.68;87.64;97192.00;5016914;28;20233;-73
2021/10/08 01:35:46;;;;;;;9.75;5.47;;;;;;;13.58;86.94;97188.75;5016066;28;20217;-73
2021/10/08 01:38:13;;;;;;;12.27;5.40;;;;;;;13.76;87.05;97194.63;5017112;28;20728;-73
2021/10/08 01:40:40;;;;;;;9.70;5.57;;;;;;;13.60;87.03;97199.97;5017036;28;20202;-73
2021/10/08 01:43:07;;;;;;;7.90;5.13;;;;;;;13.48;87.74;97204.00;5016807;28;20225;-73
2021/10/08 01:45:33;;;;;;;10.63;5.73;;;;;;;13.43;87.85;97206.34;5016536;28;20221;-73
2021/10/08 01:47:59;;;;;;;10.20;5.57;;;;;;;13.45;87.01;97199.06;5016908;28;20612;-73
2021/10/08 01:50:26;;;;;;;13.20;6.50;;;;;;;13.44;86.78;97192.09;5016912;28;20201;-73
2021/10/08 01:52:52;;;;;;;8.30;5.55;;;;;;;13.39;87.12;97196.28;5016935;28;21186;-73
2021/10/08 01:55:21;;;;;;;10.90;5.90;;;;;;;13.50;87.25;97190.59;5017077;28;20225;-73
2021/10/08 01:57:47;;;;;;;10.67;6.10;;;;;;;13.31;87.13;97188.34;5016946;28;20213;-73
2021/10/08 02:00:14;;;;;;;9.97;6.03;;;;;;;13.32;87.44;97190.00;5016720;28;20202;-73
2021/10/08 02:02:41;;;;;;;12.48;5.93;;;;;;;13.18;87.64;97185.41;5016897;28;20441;-73
2021/10/08 02:05:08;;;;;;;9.63;6.03;;;;;;;13.11;88.36;97180.97;5017055;28;20221;-73
2021/10/08 02:07:34;;;;;;;15.25;6.72;;;;;;;13.15;87.84;97184.91;5013675;28;20701;-73
2021/10/08 02:10:01;;;;;;;11.37;6.40;;;;;;;13.16;87.72;97186.56;5017937;28;20214;-73
2021/10/08 02:12:28;;;;;;;10.73;6.70;;;;;;;13.29;87.74;97184.22;5021115;28;20206;-73
2021/10/08 02:14:55;;;;;;;10.73;6.70;;;;;;;13.18;87.84;97187.25;5020673;28;20222;-73
2021/10/08 02:17:21;;;;;;;11.23;6.07;;;;;;;13.19;88.49;97188.91;5020524;28;20206;-73
2021/10/08 02:19:48;;;;;;;12.25;6.50;;;;;;;13.22;87.78;97188.56;5026741;28;20549;-73
2021/10/08 02:22:14;;;;;;;12.53;6.33;;;;;;;13.18;88.39;97187.25;5022153;28;20212;-73
2021/10/08 02:24:41;;;;;;;13.07;6.70;;;;;;;13.28;87.69;97188.69;5020141;28;20230;-73
2021/10/08 02:27:07;;;;;;;12.03;6.63;;;;;;;13.20;87.78;97186.06;5020812;28;20210;-73
2021/10/08 02:29:35;;;;;;;11.97;6.60;;;;;;;13.48;87.70;97184.66;5020442;28;20603;-72
2021/10/08 02:32:01;;;;;;;11.75;6.50;;;;;;;13.35;87.46;97175.59;5019926;28;20233;-73
2021/10/08 02:34:29;;;;;;;12.73;7.10;;;;;;;13.36;87.68;97186.00;5020942;28;20564;-73
2021/10/08 02:36:55;;;;;;;15.27;7.57;;;;;;;13.32;89.00;97184.72;5019390;28;20280;-73
2021/10/08 02:39:22;;;;;;;12.43;7.17;;;;;;;13.37;87.96;97184.22;5020093;28;20585;-73
2021/10/08 02:41:48;;;;;;;12.73;7.40;;;;;;;13.45;87.79;97180.53;5020905;28;20209;-73
2021/10/08 02:44:15;;;;;;;12.10;7.13;;;;;;;13.36;87.93;97193.13;5020333;28;20229;-73
2021/10/08 02:46:43;;;;;;;15.10;7.47;;;;;;;13.62;87.69;97183.91;5019685;28;21069;-73
2021/10/08 02:49:09;;;;;;;13.03;7.63;;;;;;;13.24;87.90;97182.09;5020432;28;20218;-73
2021/10/08 02:51:36;;;;;;;13.17;8.33;;;;;;;13.16;88.16;97182.13;5020233;28;20205;-73
2021/10/08 02:54:04;;;;;;;15.13;7.90;;;;;;;13.38;87.85;97184.03;5019378;28;20348;-73
2021/10/08 02:56:31;;;;;;;18.10;8.43;;;;;;;13.30;88.23;97185.88;5018793;28;20202;-73
2021/10/08 02:58:57;;;;;;;15.23;8.10;;;;;;;13.16;89.30;97183.94;5020687;28;20588;-73
2021/10/08 03:01:24;;;;;;;11.50;7.23;;;;;;;13.07;89.26;97187.59;5019934;28;20218;-73
2021/10/08 03:03:51;;;;;;;13.57;7.80;;;;;;;13.40;88.02;97188.16;5030983;28;20225;-73
2021/10/08 03:06:18;;;;;;;12.07;7.90;;;;;;;13.35;87.83;97183.53;5017756;28;20209;-73
2021/10/08 03:08:45;;;;;;;15.50;8.37;;;;;;;13.23;87.71;97185.72;5019714;28;20213;-73
2021/10/08 03:11:12;;;;;;;12.03;7.77;;;;;;;13.36;87.91;97193.94;5019497;28;20264;-73
2021/10/08 03:13:39;;;;;;;15.87;8.50;;;;;;;13.09;88.40;97188.25;5019779;28;20294;-73
2021/10/08 03:16:05;;;;;;;18.50;8.90;;;;;;;13.25;88.80;97188.19;5019115;28;20213;-73
2021/10/08 03:18:32;;;;;;;14.87;8.80;;;;;;;13.23;88.76;97184.91;5019763;28;20216;-73
2021/10/08 03:20:59;;;;;;;15.87;8.73;;;;;;;13.38;88.46;97183.19;5019076;28;20217;-73
2021/10/08 03:23:26;;;;;;;14.83;8.60;;;;;;;13.09;88.35;97186.44;5019262;28;20229;-73
2021/10/08 03:25:52;;;;;;;15.38;8.35;;;;;;;13.17;88.04;97189.03;5019029;28;20212;-73
2021/10/08 03:28:19;;;;;;;13.60;8.07;;;;;;;13.34;87.79;97188.03;5019476;28;20622;-73
2021/10/08 03:30:45;;;;;;;14.13;8.60;;;;;;;13.12;88.67;97193.19;5019413;28;20205;-73
2021/10/08 03:33:12;;;;;;;14.93;8.47;;;;;;;13.18;87.93;97187.25;5019437;28;20222;-73
2021/10/08 03:35:42;;;;;;;18.30;8.90;;;;;;;13.22;86.86;97185.91;5018475;28;20217;-73
2021/10/08 03:38:12;;;;;;;12.70;8.60;;;;;;;13.29;87.38;97182.41;5019079;28;20305;-73
2021/10/08 03:40:40;;;;;;;14.17;8.50;;;;;;;13.01;88.28;97188.28;5019591;28;20276;-73
2021/10/08 03:43:07;;;;;;;18.27;9.13;;;;;;;13.03;87.47;97189.75;5018678;28;20321;-73
2021/10/08 03:45:42;;;;;;;14.80;8.57;;;;;;;12.90;89.31;97188.63;5018218;28;20996;-73
2021/10/08 03:48:20;;;;;;;15.70;8.87;;;;;;;12.96;88.92;97185.31;5020022;28;20205;-73
2021/10/08 03:50:47;;;;;;;19.87;8.83;;;;;;;12.98;88.79;97183.31;5018660;28;20237;-73
2021/10/08 03:53:15;;;;;;;12.00;8.30;;;;;;;13.20;89.35;97186.06;5018245;28;20229;-73
2021/10/08 03:55:42;;;;;;;19.23;8.97;;;;;;;13.13;89.14;97189.56;5018263;28;20201;-73
2021/10/08 03:58:08;;;;;;;17.87;8.70;;;;;;;13.02;89.73;97187.25;5019199;28;20314;-73
2021/10/08 04:00:35;;;;;;;17.77;8.97;;;;;;;13.24;88.87;97189.19;5018845;28;20217;-73
2021/10/08 04:03:01;;;;;;;18.87;9.37;;;;;;;13.04;89.20;97191.41;5018460;28;20213;-73
2021/10/08 04:05:28;;;;;;;17.30;8.90;;;;;;;13.10;89.22;97195.22;5018672;28;20202;-73
2021/10/08 04:07:54;;;;;;;17.67;9.67;;;;;;;12.92;90.11;97194.59;5015799;28;20252;-73
2021/10/08 04:10:22;;;;;;;16.57;10.43;;;;;;;13.08;90.22;97192.72;5018669;28;20212;-73
2021/10/08 04:12:49;;;;;;;16.87;9.53;;;;;;;12.85;91.13;97191.75;5018613;28;20205;-72
2021/10/08 04:15:15;;;;;;;18.97;10.37;;;;;;;13.06;90.72;97193.88;5018199;28;20202;-73
2021/10/08 04:17:42;;;;;;;19.00;10.40;;;;;;;12.96;90.31;97191.41;5023623;28;20213;-73
2021/10/08 04:20:09;;;;;;;17.53;10.43;;;;;;;13.07;90.05;97190.25;5018814;28;20206;-73
2021/10/08 04:22:36;;;;;;;15.03;10.00;;;;;;;13.14;89.79;97191.22;5018560;28;20206;-73
2021/10/08 04:25:03;;;;;;;17.00;10.23;;;;;;;12.97;91.15;97189.59;5018017;28;20237;-73
2021/10/08 04:27:31;;;;;;;20.90;10.87;;;;;;;13.16;90.14;97190.06;5024168;28;20206;-73
2021/10/08 04:29:57;;;;;;;17.37;10.57;;;;;;;13.09;89.91;97185.63;5018313;28;20202;-73
2021/10/08 04:32:24;;;;;;;17.50;10.60;;;;;;;13.04;90.24;97186.09;5017213;28;20216;-73
2021/10/08 04:34:50;;;;;;;18.33;11.13;;;;;;;13.07;90.26;97187.59;5018299;28;20226;-73
2021/10/08 04:37:16;;;;;;;19.73;10.07;;;;;;;13.18;89.99;97184.59;5017202;28;20221;-73
2021/10/08 04:39:43;;;;;;;20.13;10.30;;;;;;;13.15;90.16;97182.25;5018079;28;20221;-73
2021/10/08 04:42:09;;;;;;;21.27;10.70;;;;;;;13.14;91.03;97184.09;5017501;28;20606;-73
2021/10/08 04:44:37;;;;;;;18.73;10.77;;;;;;;13.38;90.07;97176.91;5017919;28;20233;-73
2021/10/08 04:47:05;;;;;;;17.80;10.13;;;;;;;13.23;89.73;97187.56;5017467;28;20212;-73
2021/10/08 04:49:32;;;;;;;19.00;10.80;;;;;;;13.15;90.07;97176.97;5017501;28;20217;-73
2021/10/08 04:52:00;;;;;;;19.27;10.07;;;;;;;13.19;89.62;97178.31;5017861;28;21010;-73
2021/10/08 04:54:27;;;;;;;20.07;10.50;;;;;;;13.13;89.32;97179.78;5017469;28;20214;-73
2021/10/08 04:56:53;;;;;;;16.90;10.67;;;;;;;12.99;89.74;97190.25;5017121;28;20674;-73
2021/10/08 04:59:19;;;;;;;20.07;10.53;;;;;;;12.96;89.71;97185.31;5018686;28;20206;-73
2021/10/08 05:01:47;;;;;;;16.40;10.37;;;;;;;13.02;90.53;97181.97;5018180;28;20209;-73
2021/10/08 05:04:14;;;;;;;16.87;10.27;;;;;;;12.82;90.80;97180.69;5017317;28;20237;-73
2021/10/08 05:06:40;;;;;;;20.00;10.77;;;;;;;12.89;90.38;97184.31;5020163;28;20202;-73
2021/10/08 05:09:07;;;;;;;19.63;11.03;;;;;;;12.91;90.47;97175.22;5019871;28;20206;-73
2021/10/08 05:11:33;;;;;;;18.37;10.93;;;;;;;12.98;90.59;97178.03;5032634;28;20209;-73
2021/10/08 05:14:00;;;;;;;18.57;11.00;;;;;;;13.01;90.72;97175.06;5017026;28;20234;-73
2021/10/08 05:16:26;;;;;;;15.97;10.53;;;;;;;12.98;91.07;97178.03;5016792;28;20202;-73
2021/10/08 05:18:54;;;;;;;18.37;11.40;;;;;;;13.21;91.67;97171.00;5017599;28;20209;-73
2021/10/08 05:21:20;;;;;;;18.90;10.97;;;;;;;13.10;91.50;97174.84;5017309;28;20205;-73
2021/10/08 05:23:47;;;;;;;20.77;11.70;;;;;;;13.10;90.78;97179.34;5017511;28;20230;-73
2021/10/08 05:26:13;;;;;;;22.57;11.80;;;;;;;13.04;92.02;97172.06;5016764;28;20202;-73
2021/10/08 05:28:40;;;;;;;19.70;11.67;;;;;;;13.09;91.27;97173.19;5020196;28;20207;-73
2021/10/08 05:31:06;;;;;;;18.33;11.30;;;;;;;13.12;90.72;97177.31;5017499;28;20210;-73
2021/10/08 05:33:33;;;;;;;21.00;11.63;;;;;;;13.01;91.21;97180.34;5017386;28;20230;-73
2021/10/08 05:36:00;;;;;;;19.53;11.63;;;;;;;13.26;91.09;97180.09;5016175;28;20911;-73
2021/10/08 05:38:27;;;;;;;21.50;11.60;;;;;;;13.04;91.05;97180.00;5017147;28;20213;-73
2021/10/08 05:40:54;;;;;;;17.97;11.50;;;;;;;13.15;91.20;97184.91;5017068;28;20244;-72
2021/10/08 05:43:21;;;;;;;19.40;11.70;;;;;;;13.18;90.47;97187.25;5017580;28;20229;-72
2021/10/08 05:45:48;;;;;;;22.17;11.30;;;;;;;13.26;90.57;97188.03;5022694;28;20205;-72
2021/10/08 05:48:14;;;;;;;19.50;11.23;;;;;;;13.03;91.55;97189.75;5023269;28;20197;-72
2021/10/08 05:50:41;;;;;;;20.33;11.20;;;;;;;12.99;92.04;97187.63;5030073;28;20208;-72
2021/10/08 05:53:09;;;;;;;22.97;11.70;;;;;;;13.12;92.31;97187.91;5023429;28;20201;-72
2021/10/08 05:55:36;;;;;;;18.27;11.07;;;;;;;13.05;91.87;97200.19;5030732;28;20233;-72
2021/10/08 05:58:03;;;;;;;21.53;11.83;;;;;;;12.98;91.34;97197.38;5023686;28;20206;-72
2021/10/08 06:00:29;;;;;;;17.38;11.10;;;;;;;12.88;91.89;97201.19;5023423;28;20205;-72
2021/10/08 06:02:56;;;;;;;19.40;11.60;;;;;;;13.02;91.62;97193.41;5023711;28;20216;-73
2021/10/08 06:05:22;;;;;;;21.63;12.20;;;;;;;13.15;91.46;97190.22;5023280;28;20225;-73
2021/10/08 06:07:49;;;;;;;20.20;12.20;;;;;;;13.13;91.74;97192.22;5020569;28;20205;-73
2021/10/08 06:10:17;;;;;;;20.93;11.50;;;;;;;13.44;91.11;97193.91;5031233;28;21010;-72
2021/10/08 06:12:43;;;;;;;17.90;11.60;;;;;;;13.40;90.54;97190.81;5023545;28;20209;-72
2021/10/08 06:15:10;;;;;;;21.90;11.87;;;;;;;13.42;90.26;97201.22;5022909;28;20213;-73
2021/10/08 06:17:37;;;;;;;21.37;11.50;;;;;;;13.34;90.29;97197.75;5022208;28;20209;-73
2021/10/08 06:20:04;;;;;;;22.00;11.33;;;;;;;13.59;90.12;97208.94;5022955;28;20300;-73
2021/10/08 06:22:31;;;;;;;20.80;10.83;;;;;;;13.58;89.87;97196.69;5022842;28;20209;-73
2021/10/08 06:24:57;;;;;;;22.87;12.20;;;;;;;13.53;89.71;97208.78;5022785;28;20232;-72
2021/10/08 06:27:25;;;;;;;17.73;11.07;;;;;;;13.74;90.16;97209.84;5022005;28;21314;-72
2021/10/08 06:29:52;;;;;;;18.97;11.03;;;;;;;13.59;90.13;97203.66;5022674;28;20560;-73
2021/10/08 06:32:18;;;;;;;21.45;11.18;;;;;;;13.43;90.97;97203.69;5022941;28;20688;-73
2021/10/08 06:34:44;;;;;;;21.20;12.23;;;;;;;13.64;90.40;97203.94;5025053;28;20218;-72
2021/10/08 06:37:11;;;;;;;19.50;10.80;;;;;;;13.64;89.46;97205.75;5021873;28;20784;-73
2021/10/08 06:39:37;;;;;;;15.30;10.43;;;;;;;13.53;89.23;97209.63;5030471;28;20216;-72
2021/10/08 06:42:04;;;;;;;19.07;11.43;;;;;;;13.72;88.66;97209.22;5022853;28;20216;-73
2021/10/08 06:44:32;;;;;;;21.33;11.13;;;;;;;13.96;88.39;97216.19;5023263;28;20229;-73
2021/10/08 06:46:58;;;;;;;21.23;11.15;;;;;;;13.57;90.19;97210.91;5022670;28;20213;-73
2021/10/08 06:49:25;;;;;;;21.58;11.90;;;;;;;13.50;90.30;97214.41;5022765;28;20216;-73
2021/10/08 06:51:52;;;;;;;19.83;11.53;;;;;;;13.72;89.19;97221.59;5018947;28;20209;-73
2021/10/08 06:54:18;;;;;;;20.25;11.75;;;;;;;13.80;89.99;97222.41;5022995;28;20296;-72
2021/10/08 06:56:45;;;;;;;21.77;11.85;;;;;;;13.67;89.61;97218.66;5018345;28;20216;-73
2021/10/08 06:59:11;;;;;;;19.48;11.10;;;;;;;13.58;90.57;97220.53;5019806;28;20205;-72
2021/10/08 07:01:39;;;;;;;22.23;11.70;;;;;;;13.71;89.67;97222.59;5019445;28;20210;-72
2021/10/08 07:04:06;;;;;;;22.47;11.80;;;;;;;13.61;89.99;97220.16;5019035;28;20240;-72
2021/10/08 07:06:32;;;;;;;20.03;11.23;;;;;;;13.79;89.23;97223.41;5015351;28;20216;-73
2021/10/08 07:08:59;;;;;;;20.63;11.80;;;;;;;13.75;88.96;97227.41;5019118;28;20217;-72
2021/10/08 07:11:25;;;;;;;18.00;11.80;;;;;;;13.84;88.39;97229.00;5018914;28;20206;-72
2021/10/08 07:13:53;;;;;;;19.33;11.30;;;;;;;13.90;88.82;97227.47;5019522;28;20244;-73
2021/10/08 07:16:19;;;;;;;20.55;11.95;;;;;;;13.90;89.56;97228.34;5019513;28;20649;-73
2021/10/08 07:18:53;;;;;;;20.25;12.13;;;;;;;14.18;88.85;97233.00;5018900;28;20252;-73
2021/10/08 07:21:20;;;;;;;19.37;11.57;;;;;;;14.13;88.47;97231.88;5019180;28;20201;-73
2021/10/08 07:23:47;;;;;;;17.67;10.80;;;;;;;14.28;87.89;97227.47;5026652;28;20221;-73
2021/10/08 07:26:15;;;;;;;23.70;12.13;;;;;;;14.14;88.83;97225.56;5018586;28;20225;-73
2021/10/08 07:28:42;;;;;;;21.73;12.38;;;;;;;14.12;88.89;97222.28;5017592;28;20234;-72
2021/10/08 07:31:09;;;;;;;19.40;11.80;;;;;;;14.11;88.04;97231.22;5018775;28;20205;-72
2021/10/08 07:33:36;;;;;;;20.27;11.40;;;;;;;14.07;87.93;97232.53;5024827;28;20233;-73
2021/10/08 07:36:04;;;;;;;18.80;11.33;;;;;;;14.29;88.54;97229.94;5017778;28;20206;-73
2021/10/08 07:38:31;;;;;;;20.55;11.43;;;;;;;14.08;89.76;97229.75;5018400;28;20213;-72
2021/10/08 07:40:58;;;;;;;23.17;12.48;;;;;;;14.24;88.30;97236.75;5018876;28;20206;-72
2021/10/08 07:43:24;;;;;;;24.35;11.43;;;;;;;14.13;88.41;97234.53;5018784;28;20316;-73
2021/10/08 07:45:51;;;;;;;21.17;12.43;;;;;;;14.22;87.68;97236.94;5017972;28;20607;-72
2021/10/08 07:48:17;;;;;;;19.25;12.23;;;;;;;14.29;87.64;97234.41;5018868;28;20217;-73
2021/10/08 07:50:44;;;;;;;21.03;12.17;;;;;;;14.02;88.89;97226.94;5018855;28;20221;-72
2021/10/08 07:53:12;;;;;;;18.90;11.90;;;;;;;14.42;87.66;97226.69;5018822;28;20209;-73
2021/10/08 07:55:38;;;;;;;19.70;11.63;;;;;;;14.26;88.28;97232.13;5017352;28;20206;-72
2021/10/08 07:58:05;;;;;;;22.08;12.88;;;;;;;14.28;88.13;97228.31;5018341;28;20212;-72
2021/10/08 08:00:32;;;;;;;18.48;11.75;;;;;;;14.23;87.92;97230.66;5017732;28;20686;-72
2021/10/08 08:02:58;;;;;;;22.03;12.20;;;;;;;14.31;89.50;97229.78;5018865;28;20202;-72
2021/10/08 08:05:25;;;;;;;21.95;12.45;;;;;;;14.59;87.84;97228.22;5017453;28;20226;-72
2021/10/08 08:07:52;;;;;;;22.27;12.48;;;;;;;14.43;87.79;97233.66;5013588;28;20206;-75
2021/10/08 08:10:22;;;;;;;20.90;11.70;;;;;;;14.68;86.89;97231.47;5020852;28;20213;-75
2021/10/08 08:12:48;;;;;;;19.13;11.68;;;;;;;14.76;86.21;97231.38;5018304;28;20209;-73
2021/10/08 08:15:15;;;;;;;17.80;11.55;;;;;;;14.79;86.83;97233.72;5018027;28;20237;-72
2021/10/08 08:17:42;;;;;;;20.95;12.38;;;;;;;14.77;86.27;97232.25;5017136;28;20205;-72
2021/10/08 08:20:10;;;;;;;18.27;11.63;;;;;;;14.97;85.03;97228.91;5017923;28;20205;-73
2021/10/08 08:22:36;;;;;;;20.42;11.95;;;;;;;14.66;87.01;97235.28;5017661;28;20221;-73
2021/10/08 08:25:05;;;;;;;22.92;11.70;;;;;;;14.66;87.61;97233.50;5017652;28;20233;-72
2021/10/08 08:27:33;;;;;;;23.95;12.32;;;;;;;14.71;87.91;97232.94;5016731;28;20205;-73
2021/10/08 08:30:01;;;;;;;20.30;11.95;;;;;;;14.74;87.65;97233.41;5018292;28;20708;-73
2021/10/08 08:32:31;;;;;;;26.45;12.82;;;;;;;14.92;86.80;97230.47;5016853;28;20198;-72
2021/10/08 08:34:57;;;;;;;23.92;13.05;;;;;;;14.60;88.20;97232.53;5017299;28;20225;-72
2021/10/08 08:37:24;;;;;;;22.42;12.77;;;;;;;14.65;87.78;97234.50;5017565;28;20267;-72
2021/10/08 08:39:50;;;;;;;21.63;13.00;;;;;;;14.63;87.67;97233.81;5017170;28;20216;-72
2021/10/08 08:42:18;;;;;;;21.30;12.52;;;;;;;14.83;86.68;97234.19;5017442;28;20216;-72
2021/10/08 08:44:46;;;;;;;23.52;13.50;;;;;;;14.73;87.76;97228.28;5014660;28;20753;-72
2021/10/08 08:47:15;;;;;;;25.52;12.68;;;;;;;14.92;87.68;97231.28;5024613;28;20212;-72
2021/10/08 08:49:41;;;;;;;20.13;12.60;;;;;;;14.85;87.18;97232.97;5017278;28;20209;-72
2021/10/08 08:52:08;;;;;;;21.60;13.27;;;;;;;14.74;87.29;97224.63;5017110;28;20205;-72
2021/10/08 08:54:34;;;;;;;29.85;13.68;;;;;;;14.69;87.88;97235.78;5022401;28;20272;-72
2021/10/08 08:57:09;;;;;;;25.17;13.43;;;;;;;14.75;88.43;97229.75;5017272;28;20208;-72
2021/10/08 08:59:58;;;;;;;29.05;13.40;;;;;;;15.30;87.78;97228.44;5017528;28;20209;-72
2021/10/08 09:02:25;;;;;;;24.30;14.48;;;;;;;15.01;88.14;97227.53;5017379;28;20375;-72
2021/10/08 09:04:53;;;;;;;26.17;14.48;;;;;;;15.26;86.39;97218.34;5017748;28;20315;-72
2021/10/08 09:07:20;;;;;;;23.73;14.05;;;;;;;15.20;86.95;97219.06;5015886;28;20198;-72
2021/10/08 09:09:47;;;;;;;29.65;15.07;;;;;;;15.05;86.73;97218.19;5016721;28;20213;-72
2021/10/08 09:12:14;;;;;;;28.02;14.25;;;;;;;14.87;87.59;97220.34;5016093;28;20678;-72
2021/10/08 09:14:40;;;;;;;32.40;14.32;;;;;;;15.13;87.18;97214.66;5019402;28;20777;-72
2021/10/08 09:17:11;;;;;;;25.77;14.18;;;;;;;15.27;88.28;97218.19;5016584;28;20221;-72
2021/10/08 09:19:56;;;;;;;26.65;14.35;;;;;;;15.32;86.34;97210.50;5016893;28;20216;-72
2021/10/08 09:22:25;;;;;;;25.42;15.02;;;;;;;15.24;86.95;97218.53;5016066;28;20593;-72
2021/10/08 09:24:53;;;;;;;24.27;13.73;;;;;;;15.32;85.70;97217.63;5016137;28;20226;-72
2021/10/08 09:27:21;;;;;;;26.58;14.98;;;;;;;15.40;86.39;97209.56;5015959;28;20216;-72
2021/10/08 09:29:49;;;;;;;26.08;14.43;;;;;;;15.59;86.33;97206.34;5021955;28;20224;-72
2021/10/08 09:32:18;;;;;;;21.20;13.13;;;;;;;15.25;87.47;97208.75;5018215;28;20758;-72
2021/10/08 09:34:47;;;;;;;22.98;13.15;;;;;;;15.27;87.16;97207.56;5016936;28;20221;-72
2021/10/08 09:37:15;;;;;;;27.92;14.20;;;;;;;15.29;86.55;97220.66;5015646;28;20682;-72
2021/10/08 09:39:43;;;;;;;25.10;14.10;;;;;;;15.30;87.44;97214.34;5017418;28;20210;-72
2021/10/08 09:42:12;;;;;;;23.98;13.68;;;;;;;15.17;86.89;97215.94;5016306;28;20252;-72
2021/10/08 09:44:46;;;;;;;24.75;14.30;;;;;;;15.43;85.98;97209.22;5013424;28;20905;-72
2021/10/08 09:47:14;;;;;;;29.15;14.75;;;;;;;15.67;85.84;97208.91;5015516;28;20245;-72
2021/10/08 09:49:44;;;;;;;30.17;15.77;;;;;;;15.42;86.31;97208.38;5017244;28;20205;-72
2021/10/08 09:52:25;;;;;;;28.63;14.48;;;;;;;15.83;84.85;97206.06;5016440;28;20205;-72
2021/10/08 09:54:53;;;;;;;26.70;14.65;;;;;;;15.67;86.01;97208.91;5016674;28;20223;-72
2021/10/08 09:57:21;;;;;;;23.60;13.15;;;;;;;15.66;84.56;97204.63;5015707;28;20201;-72
2021/10/08 09:59:49;;;;;;;23.70;13.68;;;;;;;15.73;85.10;97202.84;5017588;28;20647;-72
2021/10/08 10:02:16;;;;;;;24.20;13.52;;;;;;;15.84;85.19;97205.06;5018548;28;20201;-72
2021/10/08 10:04:49;;;;;;;27.17;14.38;;;;;;;15.73;84.52;97197.53;5016177;28;20232;-72
2021/10/08 10:07:18;;;;;;;27.95;14.10;;;;;;;15.45;85.89;97204.53;5015436;28;20201;-72
2021/10/08 10:09:45;;;;;;;27.13;14.25;;;;;;;15.48;85.75;97196.22;5016214;28;20221;-72
2021/10/08 10:12:13;;;;;;;25.17;13.90;;;;;;;15.68;85.80;97194.63;5016883;28;20212;-72
2021/10/08 10:14:40;;;;;;;26.52;14.30;;;;;;;15.59;85.14;97201.03;5015723;28;20226;-72
2021/10/08 10:17:10;;;;;;;25.55;13.27;;;;;;;15.91;86.66;97202.28;5014538;28;20198;-72
2021/10/08 10:19:40;;;;;;;27.30;13.82;;;;;;;16.21;85.13;97201.19;5016362;28;20210;-72
2021/10/08 10:22:11;;;;;;;23.30;13.38;;;;;;;16.22;83.88;97202.84;5016336;28;20209;-72
2021/10/08 10:24:40;;;;;;;28.33;14.05;;;;;;;16.30;86.14;97199.28;5015475;28;20241;-72
2021/10/08 10:27:07;;;;;;;25.25;13.35;;;;;;;16.24;82.34;97202.66;5015538;28;20225;-72
2021/10/08 10:29:36;;;;;;;30.30;13.98;;;;;;;16.00;83.45;97206.47;5016493;28;20206;-72
2021/10/08 10:32:04;;;;;;;28.27;14.18;;;;;;;16.19;83.86;97205.03;5018532;28;20210;-72
2021/10/08 10:34:34;;;;;;;24.88;14.40;;;;;;;16.56;82.44;97208.34;5023266;28;20229;-72
2021/10/08 10:37:01;;;;;;;23.98;14.32;;;;;;;16.26;83.25;97204.13;5022337;28;20217;-72
2021/10/08 10:39:29;;;;;;;24.30;13.98;;;;;;;16.23;83.38;97212.47;5019613;28;20202;-72
2021/10/08 10:42:15;;;;;;;26.80;14.90;;;;;;;16.38;82.27;97202.66;5023763;28;20205;-72
2021/10/08 10:45:09;;;;;;;27.65;15.10;;;;;;;16.32;82.31;97206.06;5016839;28;20221;-72
2021/10/08 10:47:37;;;;;;;27.20;14.13;;;;;;;16.33;82.72;97207.72;5018397;28;20701;-73
2021/10/08 10:50:17;;;;;;;24.67;13.38;;;;;;;16.45;81.66;97206.19;5020790;28;20210;-72
2021/10/08 10:52:50;;;;;;;27.08;13.20;;;;;;;16.59;81.79;97200.78;5019219;28;20216;-73
2021/10/08 10:55:19;;;;;;;26.08;13.88;;;;;;;16.40;83.18;97202.47;5018796;28;20713;-73
2021/10/08 10:58:04;;;;;;;23.33;13.18;;;;;;;16.61;80.49;97205.91;5018425;28;20216;-72
2021/10/08 11:00:33;;;;;;;26.50;13.45;;;;;;;16.37;82.01;97203.66;5019702;28;20725;-73
2021/10/08 11:03:06;;;;;;;25.60;14.45;;;;;;;16.27;83.19;97203.13;5019219;28;20205;-72
2021/10/08 11:05:34;;;;;;;29.98;16.15;;;;;;;16.06;82.49;97205.75;5018433;28;20222;-73
2021/10/08 11:08:08;;;;;;;29.73;15.38;;;;;;;16.20;83.64;97202.19;5018740;28;20205;-72
2021/10/08 11:10:38;;;;;;;27.40;14.95;;;;;;;16.18;83.99;97198.09;5019718;28;20193;-72
2021/10/08 11:13:24;;;;;;;27.98;15.57;;;;;;;16.44;81.44;97193.88;5019553;28;20232;-72
2021/10/08 11:15:56;;;;;;;30.55;15.30;;;;;;;16.55;82.06;97196.88;5018608;28;20209;-72
2021/10/08 11:18:49;;;;;;;27.42;14.80;;;;;;;16.19;82.18;97199.72;5019037;28;21295;-72
2021/10/08 11:21:55;;;;;;;33.60;15.55;;;;;;;16.22;83.47;97199.38;5019697;28;20205;-72
2021/10/08 11:24:23;;;;;;;31.23;15.48;;;;;;;16.30;83.28;97192.09;5015319;28;20236;-72